Time;durP1;ratioP1;P1;durP2;ratioP2;P2;SDS_P1;SDS_P2;PMS_P1;PMS_P2;Temp;Humidity;BMP_temperature;BMP_pressure;BME280_temperature;BME280_humidity;BME280_pressure;Samples;Min_cycle;Max_cycle;Signal;HPM_P1;HPM_P2
2023/09/23 00:00:52;;;;;;;2.08;0.77;;;15.40;81.70;;;;;;5063441;28;20055;-66
2023/09/23 00:03:18;;;;;;;0.85;0.70;;;15.30;81.50;;;;;;5062656;28;20388;-66
2023/09/23 00:05:44;;;;;;;0.63;0.63;;;15.20;81.50;;;;;;5048834;28;20028;-67
2023/09/23 00:08:10;;;;;;;0.98;0.70;;;15.20;81.40;;;;;;5067119;28;20029;-67
2023/09/23 00:10:35;;;;;;;1.23;0.90;;;15.20;81.50;;;;;;5066578;28;20041;-67
2023/09/23 00:13:01;;;;;;;0.70;0.55;;;15.20;81.30;;;;;;5067169;28;20090;-67
2023/09/23 00:15:27;;;;;;;0.50;0.50;;;15.20;81.20;;;;;;5067257;28;20044;-66
2023/09/23 00:17:55;;;;;;;0.60;0.50;;;15.10;81.20;;;;;;5061676;28;20035;-66
2023/09/23 00:20:22;;;;;;;0.43;0.32;;;15.10;81.20;;;;;;5061841;28;20040;-67
2023/09/23 00:22:48;;;;;;;0.45;0.40;;;15.20;81.20;;;;;;5049579;28;20104;-67
2023/09/23 00:25:18;;;;;;;1.27;0.70;;;15.20;81.10;;;;;;5059600;28;20097;-68
2023/09/23 00:27:48;;;;;;;0.50;0.40;;;15.20;81.00;;;;;;5047243;28;20086;-67
2023/09/23 00:30:14;;;;;;;0.65;0.52;;;15.20;81.00;;;;;;5062633;28;20035;-67
2023/09/23 00:32:41;;;;;;;0.70;0.50;;;15.20;80.90;;;;;;5062506;28;20387;-66
2023/09/23 00:35:10;;;;;;;0.40;0.40;;;15.20;80.80;;;;;;5065094;28;20052;-66
2023/09/23 00:37:36;;;;;;;0.30;0.30;;;15.20;80.70;;;;;;5066363;28;20415;-68
2023/09/23 00:40:03;;;;;;;0.95;0.50;;;15.20;80.70;;;;;;5047966;28;20466;-68
2023/09/23 00:42:29;;;;;;;3.28;0.90;;;15.20;80.60;;;;;;5044773;28;20044;-67
2023/09/23 00:44:55;;;;;;;0.65;0.35;;;15.10;80.50;;;;;;5067016;28;20427;-67
2023/09/23 00:47:21;;;;;;;2.65;0.50;;;15.10;80.40;;;;;;5032424;28;20075;-68
2023/09/23 00:49:47;;;;;;;0.40;0.40;;;15.00;80.40;;;;;;5069209;28;20444;-69
2023/09/23 00:52:16;;;;;;;1.35;0.38;;;15.00;80.40;;;;;;5053600;28;20036;-68
2023/09/23 00:54:49;;;;;;;1.08;0.40;;;15.00;80.40;;;;;;5065320;28;20149;-68
2023/09/23 00:57:17;;;;;;;1.63;0.20;;;15.00;80.40;;;;;;5068564;28;20016;-68
2023/09/23 00:59:43;;;;;;;0.93;0.40;;;15.00;80.40;;;;;;5068792;28;20120;-66
2023/09/23 01:02:13;;;;;;;0.60;0.60;;;15.00;80.20;;;;;;5052469;28;20420;-66
2023/09/23 01:04:39;;;;;;;0.35;0.20;;;15.00;80.20;;;;;;5068686;28;20361;-66
2023/09/23 01:07:05;;;;;;;0.30;0.30;;;15.00;80.10;;;;;;5070862;28;20074;-66
2023/09/23 01:09:33;;;;;;;0.82;0.60;;;15.00;80.00;;;;;;5069350;28;20031;-66
2023/09/23 01:12:00;;;;;;;0.55;0.55;;;15.00;80.20;;;;;;5048028;28;20037;-66
2023/09/23 01:14:26;;;;;;;1.05;0.60;;;14.90;80.20;;;;;;5052143;28;20127;-66
2023/09/23 01:16:52;;;;;;;0.30;0.30;;;14.90;80.30;;;;;;5068151;28;20036;-67
2023/09/23 01:19:20;;;;;;;0.40;0.40;;;14.90;80.20;;;;;;5033861;28;20025;-66
2023/09/23 01:21:48;;;;;;;5.57;0.68;;;14.90;80.20;;;;;;5067554;28;20072;-66
2023/09/23 01:24:17;;;;;;;0.77;0.35;;;14.90;80.10;;;;;;5044633;28;20465;-66
2023/09/23 01:26:45;;;;;;;0.70;0.50;;;14.90;80.20;;;;;;5047219;28;20044;-66
2023/09/23 01:29:11;;;;;;;1.02;0.73;;;14.90;80.20;;;;;;5047721;28;20028;-66
2023/09/23 01:31:37;;;;;;;0.75;0.50;;;14.80;80.10;;;;;;5066692;28;20037;-66
2023/09/23 01:34:04;;;;;;;0.88;0.70;;;14.80;80.20;;;;;;5069395;28;20039;-66
2023/09/23 01:36:30;;;;;;;0.88;0.70;;;14.80;80.30;;;;;;5068067;28;20480;-66
2023/09/23 01:38:55;;;;;;;0.80;0.77;;;14.80;80.30;;;;;;5066422;28;20043;-66
2023/09/23 01:41:21;;;;;;;0.98;0.60;;;14.80;80.30;;;;;;5068482;28;20031;-66
2023/09/23 01:43:48;;;;;;;1.10;0.80;;;14.80;80.40;;;;;;5061670;28;20052;-67
2023/09/23 01:46:14;;;;;;;0.82;0.70;;;14.80;80.40;;;;;;5048217;28;20024;-67
2023/09/23 01:48:40;;;;;;;1.10;0.98;;;14.90;80.40;;;;;;5068281;28;20301;-67
2023/09/23 01:51:06;;;;;;;1.00;0.80;;;14.80;80.50;;;;;;5063635;28;20392;-67
2023/09/23 01:53:32;;;;;;;1.27;1.17;;;14.80;81.00;;;;;;5063006;28;20044;-68
2023/09/23 01:55:57;;;;;;;1.33;0.63;;;14.80;80.70;;;;;;5066552;28;20025;-68
2023/09/23 01:58:23;;;;;;;1.35;1.02;;;14.90;80.70;;;;;;5063265;28;20112;-67
2023/09/23 02:00:54;;;;;;;1.55;0.98;;;15.00;80.70;;;;;;5048734;28;20143;-67
2023/09/23 02:03:20;;;;;;;1.17;1.00;;;15.00;80.70;;;;;;5063898;28;20033;-66
2023/09/23 02:05:46;;;;;;;2.83;1.75;;;15.00;80.70;;;;;;5063247;28;20039;-66
2023/09/23 02:08:12;;;;;;;3.50;2.25;;;15.00;80.70;;;;;;5034943;28;20035;-66
2023/09/23 02:10:38;;;;;;;1.35;1.20;;;14.90;80.70;;;;;;5064564;28;20194;-66
2023/09/23 02:13:04;;;;;;;3.97;1.80;;;14.90;80.90;;;;;;5049555;28;20039;-66
2023/09/23 02:15:29;;;;;;;2.83;1.85;;;14.90;81.00;;;;;;5068445;28;20041;-66
2023/09/23 02:17:55;;;;;;;3.40;2.13;;;14.80;81.10;;;;;;5066686;28;20032;-66
2023/09/23 02:20:24;;;;;;;1.83;1.30;;;14.80;81.20;;;;;;5063367;28;20048;-66
2023/09/23 02:22:54;;;;;;;2.63;2.08;;;14.80;81.30;;;;;;5068771;28;20483;-67
2023/09/23 02:25:24;;;;;;;2.70;1.98;;;14.80;81.40;;;;;;5060282;28;20131;-67
2023/09/23 02:27:51;;;;;;;3.30;2.17;;;14.80;81.60;;;;;;5063829;28;20453;-67
2023/09/23 02:30:17;;;;;;;2.85;2.03;;;14.80;81.60;;;;;;5027955;28;20043;-67
2023/09/23 02:32:44;;;;;;;4.97;3.40;;;14.80;81.60;;;;;;5066351;28;20032;-67
2023/09/23 02:35:12;;;;;;;3.00;2.25;;;14.80;81.70;;;;;;5066522;28;20162;-67
2023/09/23 02:37:48;;;;;;;2.50;1.85;;;14.80;81.80;;;;;;5046516;28;20078;-68
2023/09/23 02:40:15;;;;;;;2.33;1.58;;;14.90;81.70;;;;;;5063661;28;20043;-67
2023/09/23 02:42:53;;;;;;;3.13;2.03;;;14.90;81.70;;;;;;5062985;28;20037;-68
2023/09/23 02:45:20;;;;;;;4.03;2.17;;;15.00;81.70;;;;;;5067739;28;20032;-67
2023/09/23 02:47:46;;;;;;;3.53;2.47;;;14.90;81.70;;;;;;5066194;28;20033;-68
2023/09/23 02:50:13;;;;;;;4.70;3.03;;;14.90;81.70;;;;;;5062619;28;20075;-68
2023/09/23 02:52:40;;;;;;;3.38;2.47;;;14.90;81.90;;;;;;5065265;28;20130;-68
2023/09/23 02:55:14;;;;;;;3.83;2.60;;;14.90;82.00;;;;;;5050745;28;20031;-68
2023/09/23 02:57:41;;;;;;;5.30;3.30;;;14.90;82.20;;;;;;5066139;28;20025;-68
2023/09/23 03:00:22;;;;;;;4.07;2.83;;;14.90;82.30;;;;;;5066243;28;20070;-67
2023/09/23 03:02:59;;;;;;;4.93;3.55;;;14.90;82.50;;;;;;5066960;28;20426;-68
2023/09/23 03:05:28;;;;;;;4.85;2.80;;;14.80;82.60;;;;;;5062350;28;20940;-66
2023/09/23 03:07:57;;;;;;;6.28;4.07;;;14.80;82.60;;;;;;5049595;28;20123;-67
2023/09/23 03:10:32;;;;;;;6.93;3.80;;;14.80;82.60;;;;;;5063634;28;20021;-66
2023/09/23 03:13:05;;;;;;;4.47;3.28;;;14.80;82.70;;;;;;5064116;28;20040;-66
2023/09/23 03:15:44;;;;;;;4.53;2.92;;;14.80;82.70;;;;;;5046451;28;20522;-66
2023/09/23 03:18:14;;;;;;;4.78;3.03;;;14.90;82.60;;;;;;5061537;28;20043;-66
2023/09/23 03:20:40;;;;;;;7.68;3.83;;;14.90;83.20;;;;;;5065618;28;20028;-66
2023/09/23 03:23:09;;;;;;;5.68;3.08;;;14.90;82.70;;;;;;5067948;28;20033;-66
2023/09/23 03:25:42;;;;;;;6.25;3.90;;;14.80;82.60;;;;;;5067780;28;20017;-66
2023/09/23 03:28:08;;;;;;;6.85;3.60;;;14.80;82.80;;;;;;5066664;28;20066;-66
2023/09/23 03:30:35;;;;;;;5.30;3.42;;;14.80;82.90;;;;;;5045234;28;20112;-66
2023/09/23 03:33:02;;;;;;;6.00;3.08;;;14.80;82.80;;;;;;5066119;28;20025;-66
2023/09/23 03:35:28;;;;;;;4.78;2.80;;;14.80;82.80;;;;;;5049539;28;20119;-66
2023/09/23 03:37:54;;;;;;;6.20;3.95;;;14.80;82.70;;;;;;5045768;28;20059;-67
2023/09/23 03:40:24;;;;;;;4.78;2.97;;;14.80;82.80;;;;;;5062396;28;20157;-68
2023/09/23 03:42:50;;;;;;;6.20;3.35;;;14.80;82.80;;;;;;5038211;28;20070;-67
2023/09/23 03:45:17;;;;;;;7.28;3.55;;;14.80;82.80;;;;;;5062334;28;20052;-68
2023/09/23 03:47:45;;;;;;;4.80;3.55;;;14.80;82.80;;;;;;5065011;28;20028;-68
2023/09/23 03:50:12;;;;;;;6.68;3.63;;;14.80;82.80;;;;;;5065059;28;20043;-67
2023/09/23 03:52:38;;;;;;;5.03;3.47;;;14.70;83.00;;;;;;5060747;28;20491;-67
2023/09/23 03:55:04;;;;;;;4.97;3.35;;;14.70;83.80;;;;;;5066427;28;20052;-68
2023/09/23 03:57:30;;;;;;;6.35;4.13;;;14.70;83.30;;;;;;5066842;28;20029;-67
2023/09/23 03:59:55;;;;;;;8.23;3.80;;;14.80;83.40;;;;;;5058591;28;20028;-67
2023/09/23 04:02:24;;;;;;;7.05;4.68;;;14.80;83.40;;;;;;5043613;28;20057;-68
2023/09/23 04:04:53;;;;;;;7.00;3.90;;;14.70;83.30;;;;;;5049331;28;20523;-68
2023/09/23 04:07:22;;;;;;;6.03;4.05;;;14.70;83.50;;;;;;5043678;28;20040;-67
2023/09/23 04:09:47;;;;;;;8.88;4.30;;;14.70;83.60;;;;;;5065925;28;20125;-67
2023/09/23 04:12:14;;;;;;;6.68;4.47;;;14.70;83.60;;;;;;5067322;28;20096;-67
2023/09/23 04:14:39;;;;;;;8.55;5.22;;;14.70;83.70;;;;;;5062901;28;20047;-67
2023/09/23 04:17:05;;;;;;;7.57;3.47;;;14.70;83.70;;;;;;5063691;28;20024;-67
2023/09/23 04:19:31;;;;;;;5.43;3.08;;;14.60;83.70;;;;;;5065064;28;20124;-68
2023/09/23 04:21:57;;;;;;;5.93;3.20;;;14.60;83.90;;;;;;5065572;28;20043;-67
2023/09/23 04:24:23;;;;;;;12.75;4.15;;;14.60;83.80;;;;;;5065222;28;20027;-67
2023/09/23 04:26:49;;;;;;;7.95;3.78;;;14.70;83.90;;;;;;5067240;28;20032;-67
2023/09/23 04:29:19;;;;;;;4.75;3.63;;;14.60;83.80;;;;;;5066035;28;20040;-67
2023/09/23 04:31:45;;;;;;;8.32;4.43;;;14.60;83.90;;;;;;5064907;28;20098;-66
2023/09/23 04:34:13;;;;;;;5.00;3.67;;;14.60;83.90;;;;;;5067791;28;20495;-66
2023/09/23 04:36:39;;;;;;;8.32;5.45;;;14.60;84.10;;;;;;5063871;28;20025;-68
2023/09/23 04:39:06;;;;;;;13.35;4.32;;;14.60;84.10;;;;;;5068641;28;20506;-68
2023/09/23 04:41:32;;;;;;;5.68;3.67;;;14.60;84.00;;;;;;5067619;28;20232;-68
2023/09/23 04:43:58;;;;;;;4.93;2.90;;;14.60;84.00;;;;;;5050996;28;20090;-67
2023/09/23 04:46:24;;;;;;;4.85;2.78;;;14.60;83.90;;;;;;5065065;28;20036;-67
2023/09/23 04:48:49;;;;;;;4.78;3.58;;;14.70;83.80;;;;;;5070546;28;20039;-67
2023/09/23 04:51:17;;;;;;;6.50;3.92;;;14.70;83.70;;;;;;5066783;28;20040;-67
2023/09/23 04:53:42;;;;;;;6.55;3.72;;;14.70;83.50;;;;;;5068579;28;20044;-67
2023/09/23 04:56:16;;;;;;;5.75;3.65;;;14.60;83.50;;;;;;5068162;28;20476;-68
2023/09/23 04:58:42;;;;;;;5.55;3.40;;;14.70;83.60;;;;;;5051477;28;20063;-67
2023/09/23 05:01:08;;;;;;;6.55;4.00;;;14.70;83.60;;;;;;5068531;28;20041;-68
2023/09/23 05:03:36;;;;;;;9.13;3.83;;;14.70;83.60;;;;;;5065906;28;20450;-68
2023/09/23 05:06:02;;;;;;;9.65;4.93;;;14.70;83.60;;;;;;5067088;28;20035;-68
2023/09/23 05:08:28;;;;;;;7.45;4.80;;;14.70;83.50;;;;;;5067486;28;20024;-67
2023/09/23 05:10:56;;;;;;;9.43;4.18;;;14.70;83.40;;;;;;5048834;28;20491;-68
2023/09/23 05:13:23;;;;;;;5.97;3.53;;;14.70;83.30;;;;;;5043587;28;20029;-68
2023/09/23 05:15:49;;;;;;;6.00;3.80;;;14.70;83.40;;;;;;5068722;28;20060;-67
2023/09/23 05:18:14;;;;;;;5.65;3.72;;;14.70;83.30;;;;;;5048913;28;20068;-66
2023/09/23 05:20:40;;;;;;;8.23;4.65;;;14.70;83.40;;;;;;5065155;28;20040;-67
2023/09/23 05:23:07;;;;;;;7.18;4.35;;;14.70;83.50;;;;;;5063390;28;20021;-66
2023/09/23 05:25:33;;;;;;;4.85;3.17;;;14.60;83.40;;;;;;5060454;28;20395;-66
2023/09/23 05:27:59;;;;;;;5.13;3.58;;;14.60;83.60;;;;;;5063058;28;20021;-68
2023/09/23 05:30:27;;;;;;;7.18;3.35;;;14.60;83.60;;;;;;5060944;28;20048;-68
2023/09/23 05:32:53;;;;;;;7.40;3.22;;;14.60;83.50;;;;;;5064081;28;20462;-68
2023/09/23 05:35:19;;;;;;;4.47;2.80;;;14.70;83.50;;;;;;5044434;28;20032;-67
2023/09/23 05:37:45;;;;;;;6.43;3.88;;;14.70;83.50;;;;;;5069552;28;20037;-68
2023/09/23 05:40:23;;;;;;;5.43;3.63;;;14.70;83.50;;;;;;5067064;28;20016;-68
2023/09/23 05:42:52;;;;;;;6.45;3.67;;;14.70;83.40;;;;;;5045152;28;20052;-67
2023/09/23 05:45:22;;;;;;;6.60;4.00;;;14.60;83.40;;;;;;5045788;28;20048;-66
2023/09/23 05:47:48;;;;;;;7.75;4.55;;;14.60;83.60;;;;;;5058353;28;20406;-65
2023/09/23 05:50:15;;;;;;;3.30;2.58;;;14.70;83.70;;;;;;5048708;28;20033;-65
2023/09/23 05:52:41;;;;;;;6.05;3.60;;;14.60;83.60;;;;;;5044206;28;20024;-65
2023/09/23 05:55:07;;;;;;;5.05;2.80;;;14.60;83.50;;;;;;5044032;28;20029;-65
2023/09/23 05:57:38;;;;;;;5.13;2.70;;;14.60;83.40;;;;;;5048546;28;20041;-65
2023/09/23 06:00:09;;;;;;;5.45;2.83;;;14.70;83.40;;;;;;5059960;28;20024;-66
2023/09/23 06:02:35;;;;;;;5.90;2.47;;;14.60;83.50;;;;;;5048588;28;20519;-68
2023/09/23 06:05:01;;;;;;;3.20;2.35;;;14.60;83.40;;;;;;5042826;28;20084;-66
2023/09/23 06:07:28;;;;;;;4.28;2.80;;;14.60;83.40;;;;;;5058601;28;20076;-65
2023/09/23 06:09:54;;;;;;;8.30;3.72;;;14.70;83.40;;;;;;5047256;28;20021;-66
2023/09/23 06:12:20;;;;;;;4.30;2.75;;;14.70;83.30;;;;;;5041251;28;20025;-67
2023/09/23 06:14:46;;;;;;;4.13;2.33;;;14.60;83.50;;;;;;5038702;28;20034;-67
2023/09/23 06:17:11;;;;;;;3.25;2.55;;;14.50;83.50;;;;;;5064234;28;20059;-67
2023/09/23 06:19:37;;;;;;;3.58;2.45;;;14.50;83.60;;;;;;5047622;28;20032;-67
2023/09/23 06:22:03;;;;;;;4.75;2.38;;;14.50;83.60;;;;;;5045327;28;20387;-67
2023/09/23 06:24:28;;;;;;;4.80;3.35;;;14.60;83.60;;;;;;5024818;28;20022;-67
2023/09/23 06:26:54;;;;;;;2.92;1.95;;;14.60;83.60;;;;;;5061784;28;20044;-67
2023/09/23 06:29:20;;;;;;;2.92;1.90;;;14.60;83.60;;;;;;5046728;28;20024;-67
2023/09/23 06:31:46;;;;;;;3.83;2.05;;;14.60;83.60;;;;;;5046515;28;20129;-67
2023/09/23 06:34:11;;;;;;;5.43;2.65;;;14.60;83.50;;;;;;5046669;28;20547;-66
2023/09/23 06:36:37;;;;;;;4.38;3.22;;;14.60;83.70;;;;;;5047536;28;20048;-66
2023/09/23 06:39:03;;;;;;;3.38;2.55;;;14.60;83.80;;;;;;5045154;28;20029;-67
2023/09/23 06:41:28;;;;;;;4.45;2.38;;;14.60;83.70;;;;;;5047184;28;20033;-67
2023/09/23 06:43:54;;;;;;;5.30;2.63;;;14.60;83.70;;;;;;5047003;28;20037;-65
2023/09/23 06:46:20;;;;;;;3.63;2.42;;;14.70;83.70;;;;;;5047742;28;20028;-66
2023/09/23 06:48:45;;;;;;;3.30;2.47;;;14.70;83.70;;;;;;5048281;28;20051;-66
2023/09/23 06:51:11;;;;;;;6.93;2.78;;;14.60;83.60;;;;;;5045421;28;20051;-66
2023/09/23 06:53:37;;;;;;;3.97;2.42;;;14.70;83.70;;;;;;5046354;28;20212;-66
2023/09/23 06:56:03;;;;;;;3.67;2.63;;;14.70;83.60;;;;;;5046964;28;20040;-67
2023/09/23 06:58:29;;;;;;;3.55;1.98;;;14.70;83.50;;;;;;5038163;28;20033;-66
2023/09/23 07:00:55;;;;;;;2.33;2.10;;;14.80;83.50;;;;;;5043760;28;20037;-65
2023/09/23 07:03:21;;;;;;;4.07;2.63;;;14.90;83.30;;;;;;5047891;28;20342;-66
2023/09/23 07:05:47;;;;;;;4.63;2.63;;;14.90;83.20;;;;;;5043536;28;20400;-66
2023/09/23 07:08:12;;;;;;;5.28;1.83;;;14.90;83.20;;;;;;5041405;28;20040;-67
2023/09/23 07:10:39;;;;;;;2.17;1.80;;;14.90;83.10;;;;;;5040379;28;20485;-67
2023/09/23 07:13:06;;;;;;;2.83;1.95;;;14.90;83.10;;;;;;5043484;28;20048;-66
2023/09/23 07:15:36;;;;;;;3.80;2.42;;;15.00;83.10;;;;;;5042089;28;20563;-66
2023/09/23 07:18:03;;;;;;;5.03;2.72;;;15.00;83.00;;;;;;5046181;28;20064;-67
2023/09/23 07:20:29;;;;;;;3.47;2.33;;;15.00;82.90;;;;;;5045682;28;20037;-66
2023/09/23 07:22:54;;;;;;;2.50;2.28;;;15.00;82.80;;;;;;5047889;28;20499;-66
2023/09/23 07:25:20;;;;;;;3.00;2.47;;;14.90;82.90;;;;;;5046784;28;20499;-67
2023/09/23 07:27:47;;;;;;;5.85;2.70;;;14.90;83.00;;;;;;5046199;28;20036;-67
2023/09/23 07:30:14;;;;;;;6.00;3.17;;;14.90;83.10;;;;;;5043551;28;20118;-67
2023/09/23 07:32:40;;;;;;;4.43;2.38;;;14.90;83.10;;;;;;5045304;28;20047;-67
2023/09/23 07:35:07;;;;;;;16.02;3.47;;;15.00;83.10;;;;;;5043694;28;20487;-66
2023/09/23 07:37:33;;;;;;;3.50;2.60;;;15.10;82.80;;;;;;5044801;28;20037;-66
2023/09/23 07:39:59;;;;;;;2.95;2.08;;;15.10;82.80;;;;;;5030709;28;20028;-67
2023/09/23 07:42:25;;;;;;;3.35;2.33;;;15.10;82.80;;;;;;5037445;28;20062;-67
2023/09/23 07:44:51;;;;;;;3.67;2.45;;;15.10;82.70;;;;;;5060800;28;20025;-67
2023/09/23 07:47:17;;;;;;;4.85;2.60;;;15.20;82.80;;;;;;5048371;28;20070;-67
2023/09/23 07:49:42;;;;;;;7.25;3.15;;;15.20;82.70;;;;;;5031793;28;20048;-66
2023/09/23 07:52:08;;;;;;;5.40;2.55;;;15.20;82.70;;;;;;5048501;28;20028;-67
2023/09/23 07:54:34;;;;;;;4.10;2.17;;;15.20;82.60;;;;;;5063321;28;20062;-67
2023/09/23 07:57:00;;;;;;;3.13;1.85;;;15.20;82.70;;;;;;5066380;28;20040;-63
2023/09/23 07:59:26;;;;;;;6.72;2.63;;;15.20;82.60;;;;;;5063483;28;20436;-64
2023/09/23 08:01:51;;;;;;;5.45;2.17;;;15.30;82.80;;;;;;5058069;28;20127;-67
2023/09/23 08:04:17;;;;;;;2.70;2.05;;;15.40;82.80;;;;;;5046144;28;20099;-67
2023/09/23 08:06:43;;;;;;;4.78;2.13;;;15.40;82.70;;;;;;5066316;28;20071;-68
2023/09/23 08:09:09;;;;;;;5.75;2.45;;;15.50;82.50;;;;;;5061700;28;20500;-69
2023/09/23 08:11:35;;;;;;;4.93;2.17;;;15.50;82.30;;;;;;5062172;28;20039;-66
2023/09/23 08:14:01;;;;;;;2.15;1.60;;;15.60;82.20;;;;;;5059697;28;20488;-69
2023/09/23 08:16:26;;;;;;;3.92;1.67;;;15.70;82.10;;;;;;5048471;28;20496;-66
2023/09/23 08:18:52;;;;;;;2.35;1.98;;;15.70;81.90;;;;;;5064884;28;20047;-67
2023/09/23 08:21:18;;;;;;;4.50;2.15;;;15.70;81.80;;;;;;5056394;28;20039;-67
2023/09/23 08:23:44;;;;;;;5.55;3.25;;;15.80;82.00;;;;;;5030004;28;20028;-71
2023/09/23 08:26:10;;;;;;;6.60;2.85;;;15.90;81.00;;;;;;5042727;28;20036;-66
2023/09/23 08:28:36;;;;;;;2.78;1.95;;;15.90;81.00;;;;;;5058377;28;20044;-65
2023/09/23 08:31:02;;;;;;;2.45;2.03;;;15.90;81.30;;;;;;5060845;28;20063;-65
2023/09/23 08:33:28;;;;;;;3.90;2.17;;;16.00;81.10;;;;;;5039392;28;20064;-63
2023/09/23 08:35:54;;;;;;;4.35;2.30;;;16.10;80.90;;;;;;5043559;28;20036;-65
2023/09/23 08:38:20;;;;;;;1.52;1.27;;;16.20;80.70;;;;;;5060157;28;20502;-65
2023/09/23 08:40:46;;;;;;;3.72;1.60;;;16.50;80.70;;;;;;5061484;28;20029;-66
2023/09/23 08:43:12;;;;;;;2.70;1.83;;;16.60;80.00;;;;;;5056901;28;20095;-67
2023/09/23 08:45:46;;;;;;;2.95;1.48;;;16.70;79.40;;;;;;5063814;28;20468;-65
2023/09/23 08:48:13;;;;;;;3.28;1.75;;;16.60;79.70;;;;;;5059546;28;20024;-65
2023/09/23 08:50:46;;;;;;;5.13;1.63;;;16.60;79.30;;;;;;5064282;28;20077;-66
2023/09/23 08:53:16;;;;;;;3.28;1.80;;;16.50;79.70;;;;;;5044878;28;20082;-64
2023/09/23 08:55:43;;;;;;;2.53;1.67;;;16.50;79.80;;;;;;5054638;28;20033;-65
2023/09/23 08:58:10;;;;;;;5.30;1.95;;;16.60;79.90;;;;;;5045584;28;20115;-65
2023/09/23 09:00:36;;;;;;;6.93;1.98;;;16.60;79.90;;;;;;5041832;28;20545;-64
2023/09/23 09:03:02;;;;;;;2.25;1.65;;;16.60;79.70;;;;;;5058266;28;20024;-64
2023/09/23 09:05:40;;;;;;;2.25;1.50;;;16.60;79.80;;;;;;5058831;28;20158;-70
2023/09/23 09:08:06;;;;;;;2.47;1.45;;;16.60;79.60;;;;;;5038993;28;20037;-69
2023/09/23 09:10:32;;;;;;;3.90;1.90;;;16.60;79.70;;;;;;5058964;28;20136;-69
2023/09/23 09:13:05;;;;;;;3.65;1.90;;;16.70;79.60;;;;;;5061624;28;20051;-74
2023/09/23 09:15:33;;;;;;;5.68;2.13;;;16.70;79.70;;;;;;5042756;28;20033;-72
2023/09/23 09:17:59;;;;;;;2.30;2.00;;;16.80;79.40;;;;;;5059836;28;20091;-73
2023/09/23 09:20:25;;;;;;;1.90;1.45;;;16.80;79.00;;;;;;5062408;28;20071;-69
2023/09/23 09:22:51;;;;;;;2.30;1.65;;;16.80;78.90;;;;;;5065432;28;20032;-64
2023/09/23 09:25:20;;;;;;;2.53;2.10;;;17.00;79.10;;;;;;5044645;28;20078;-67
2023/09/23 09:27:46;;;;;;;2.15;1.58;;;16.90;78.00;;;;;;5065968;28;20474;-72
2023/09/23 09:30:13;;;;;;;3.50;1.48;;;16.80;78.70;;;;;;5064137;28;20029;-73
2023/09/23 09:32:42;;;;;;;2.95;1.20;;;16.70;78.90;;;;;;5053822;28;20459;-70
2023/09/23 09:35:12;;;;;;;3.50;1.58;;;16.60;79.30;;;;;;5060944;28;20033;-66
2023/09/23 09:37:44;;;;;;;1.55;1.15;;;16.50;79.70;;;;;;5068533;28;20029;-68
2023/09/23 09:40:17;;;;;;;1.80;1.27;;;16.40;80.40;;;;;;5062185;28;20472;-70
2023/09/23 09:42:57;;;;;;;1.55;1.05;;;16.40;81.00;;;;;;5066821;28;20039;-67
2023/09/23 09:45:23;;;;;;;2.42;1.00;;;16.50;81.10;;;;;;5065612;28;20029;-66
2023/09/23 09:47:55;;;;;;;2.50;1.30;;;16.50;81.20;;;;;;5061703;28;20028;-67
2023/09/23 09:50:22;;;;;;;;;;;16.60;81.30;;;;;;5060966;28;20490;-68
2023/09/23 09:52:48;;;;;;;1.77;1.45;;;16.60;81.60;;;;;;5066247;28;20267;-67
2023/09/23 09:55:18;;;;;;;2.63;1.75;;;16.60;81.60;;;;;;5064959;28;20036;-68
2023/09/23 09:57:45;;;;;;;2.58;1.67;;;16.60;81.50;;;;;;5061970;28;20471;-67
2023/09/23 10:00:26;;;;;;;2.65;1.90;;;16.60;81.60;;;;;;5056452;28;20021;-68
2023/09/23 10:03:00;;;;;;;1.80;1.58;;;16.50;81.80;;;;;;5064273;28;20056;-69
2023/09/23 10:05:41;;;;;;;3.17;1.73;;;16.50;82.10;;;;;;5063370;28;20020;-67
2023/09/23 10:08:13;;;;;;;1.17;1.05;;;16.50;82.10;;;;;;5066940;28;20420;-67
2023/09/23 10:10:44;;;;;;;5.85;1.38;;;16.50;82.10;;;;;;5062986;28;20024;-68
2023/09/23 10:13:14;;;;;;;3.38;1.65;;;16.50;82.40;;;;;;5059665;28;20033;-68
2023/09/23 10:15:40;;;;;;;10.63;1.20;;;16.60;82.40;;;;;;5062695;28;20559;-67
2023/09/23 10:18:33;;;;;;;1.75;1.30;;;16.60;82.30;;;;;;5042395;28;20044;-73
2023/09/23 10:20:58;;;;;;;2.53;1.42;;;16.60;82.30;;;;;;5062744;28;20024;-71
2023/09/23 10:23:24;;;;;;;1.67;0.70;;;16.60;82.30;;;;;;5063773;28;20119;-73
2023/09/23 10:25:52;;;;;;;2.65;1.13;;;16.70;82.20;;;;;;5065684;28;20028;-74
2023/09/23 10:28:22;;;;;;;2.17;1.13;;;16.80;82.20;;;;;;5063043;28;20438;-70
2023/09/23 10:31:04;;;;;;;2.42;1.52;;;16.90;82.20;;;;;;5065607;28;20032;-69
2023/09/23 10:33:31;;;;;;;2.45;1.10;;;17.00;82.10;;;;;;5063074;28;20036;-70
2023/09/23 10:35:58;;;;;;;1.20;1.08;;;17.10;82.10;;;;;;5062405;28;20052;-70
2023/09/23 10:38:26;;;;;;;2.20;1.42;;;17.20;82.10;;;;;;5046602;28;20040;-69
2023/09/23 10:40:53;;;;;;;3.38;1.30;;;17.30;82.00;;;;;;5064508;28;20110;-68
2023/09/23 10:43:22;;;;;;;3.00;1.27;;;17.40;81.80;;;;;;5062778;28;20659;-69
2023/09/23 10:45:56;;;;;;;2.72;2.08;;;17.40;81.50;;;;;;5064687;28;20036;-70
2023/09/23 10:48:22;;;;;;;2.63;1.17;;;17.50;81.60;;;;;;5044047;28;20024;-72
2023/09/23 10:50:50;;;;;;;1.30;1.15;;;17.40;81.50;;;;;;5062862;28;20031;-69
2023/09/23 10:53:15;;;;;;;11.65;2.63;;;17.40;81.60;;;;;;5060531;28;20086;-69
2023/09/23 10:55:41;;;;;;;2.67;1.98;;;17.50;81.30;;;;;;5058396;28;20438;-69
2023/09/23 10:58:08;;;;;;;5.75;1.55;;;17.60;81.20;;;;;;5044343;28;20024;-69
2023/09/23 11:00:39;;;;;;;2.03;1.40;;;17.80;81.20;;;;;;5062112;28;20040;-70
2023/09/23 11:03:09;;;;;;;3.38;1.33;;;18.00;80.10;;;;;;5064909;28;20426;-68
2023/09/23 11:05:37;;;;;;;2.45;1.48;;;18.10;79.30;;;;;;5059669;28;20372;-69
2023/09/23 11:08:07;;;;;;;1.80;1.55;;;18.10;79.20;;;;;;5047776;28;20040;-70
2023/09/23 11:10:36;;;;;;;2.17;1.67;;;18.10;78.40;;;;;;5063211;28;20068;-69
2023/09/23 11:13:05;;;;;;;1.85;1.65;;;18.20;77.70;;;;;;5062232;28;20495;-69
2023/09/23 11:15:31;;;;;;;4.45;1.65;;;18.20;77.40;;;;;;5063817;28;20036;-69
2023/09/23 11:17:58;;;;;;;1.50;1.27;;;18.20;76.90;;;;;;5054863;28;20064;-69
2023/09/23 11:20:31;;;;;;;1.55;1.30;;;18.20;76.80;;;;;;5061261;28;20043;-69
2023/09/23 11:23:03;;;;;;;4.05;1.17;;;18.20;77.40;;;;;;5047515;28;20032;-68
2023/09/23 11:25:29;;;;;;;1.75;0.90;;;18.20;77.10;;;;;;5064960;28;20031;-69
2023/09/23 11:27:59;;;;;;;1.20;1.10;;;18.20;77.50;;;;;;5067708;28;20052;-69
2023/09/23 11:30:25;;;;;;;2.60;1.88;;;18.20;77.60;;;;;;5056851;28;20025;-70
2023/09/23 11:32:52;;;;;;;1.88;1.42;;;18.10;77.60;;;;;;5049826;28;20028;-70
2023/09/23 11:35:18;;;;;;;0.90;0.90;;;18.00;78.00;;;;;;5066657;28;20027;-70
2023/09/23 11:37:47;;;;;;;2.25;1.30;;;17.90;78.30;;;;;;5066822;28;20035;-68
2023/09/23 11:40:14;;;;;;;1.77;1.50;;;17.80;78.40;;;;;;5047035;28;20033;-68
2023/09/23 11:42:41;;;;;;;5.18;1.38;;;17.70;78.70;;;;;;5042567;28;20123;-69
2023/09/23 11:45:10;;;;;;;1.58;1.40;;;17.60;79.20;;;;;;5064005;28;20043;-69
2023/09/23 11:47:38;;;;;;;2.10;1.42;;;17.50;79.70;;;;;;5043013;28;20032;-69
2023/09/23 11:50:05;;;;;;;5.00;2.40;;;17.30;79.90;;;;;;5056219;28;20097;-69
2023/09/23 11:52:32;;;;;;;1.95;1.20;;;17.20;80.60;;;;;;5063751;28;20074;-70
2023/09/23 11:54:58;;;;;;;2.72;1.20;;;17.10;81.10;;;;;;5053314;28;20039;-69
2023/09/23 11:57:25;;;;;;;1.88;1.50;;;17.10;81.40;;;;;;5042449;28;20423;-69
2023/09/23 11:59:51;;;;;;;3.08;1.70;;;17.10;81.90;;;;;;5045765;28;20111;-69
2023/09/23 12:02:19;;;;;;;2.47;1.20;;;17.30;82.20;;;;;;5062994;28;20131;-70
2023/09/23 12:04:46;;;;;;;4.68;1.60;;;17.40;82.00;;;;;;5064892;28;20035;-70
2023/09/23 12:07:14;;;;;;;6.60;1.50;;;17.60;82.00;;;;;;5064726;28;20040;-70
2023/09/23 12:09:40;;;;;;;2.35;1.80;;;18.00;81.50;;;;;;5063330;28;20099;-70
2023/09/23 12:12:06;;;;;;;2.50;1.65;;;18.30;80.80;;;;;;5046059;28;20534;-68
2023/09/23 12:14:32;;;;;;;1.10;1.00;;;18.50;80.50;;;;;;5046086;28;20475;-68
2023/09/23 12:16:57;;;;;;;2.63;1.30;;;18.80;80.30;;;;;;5039273;28;20039;-70
2023/09/23 12:19:23;;;;;;;4.00;1.95;;;19.00;79.50;;;;;;5061601;28;20101;-69
2023/09/23 12:21:49;;;;;;;1.50;1.13;;;19.20;78.50;;;;;;5062172;28;20037;-69
2023/09/23 12:24:15;;;;;;;1.20;1.00;;;19.30;78.80;;;;;;5059407;28;20024;-70
2023/09/23 12:26:41;;;;;;;4.20;1.27;;;19.60;79.00;;;;;;5053991;28;20029;-70
2023/09/23 12:29:06;;;;;;;1.77;1.50;;;20.10;78.60;;;;;;5045965;28;20487;-70
2023/09/23 12:31:32;;;;;;;1.52;1.25;;;20.30;74.30;;;;;;5066928;28;20480;-69
2023/09/23 12:33:58;;;;;;;1.15;1.02;;;20.20;75.00;;;;;;5067771;28;20028;-70
2023/09/23 12:36:24;;;;;;;1.88;1.70;;;20.00;75.70;;;;;;5040559;28;20037;-70
2023/09/23 12:38:49;;;;;;;2.88;1.33;;;19.90;75.30;;;;;;5027534;28;20079;-71
2023/09/23 12:41:16;;;;;;;0.63;0.60;;;19.90;75.40;;;;;;5059732;28;20056;-70
2023/09/23 12:43:42;;;;;;;4.90;1.13;;;19.90;74.60;;;;;;5061687;28;20046;-70
2023/09/23 12:46:08;;;;;;;2.90;0.70;;;19.80;73.90;;;;;;5045867;28;20691;-70
2023/09/23 12:48:34;;;;;;;1.27;1.17;;;19.90;74.80;;;;;;5064838;28;20032;-70